Time;durP1;ratioP1;P1;durP2;ratioP2;P2;SDS_P1;SDS_P2;PMS_P1;PMS_P2;Temp;Humidity;BMP_temperature;BMP_pressure;BME280_temperature;BME280_humidity;BME280_pressure;Samples;Min_cycle;Max_cycle;Signal;HPM_P1;HPM_P2
2021/08/20 00:02:12;;;;;;;4.32;2.80;;;;;;;-139.48;100.00;61774.03;5081878;28;20043;-68
2021/08/20 00:04:56;;;;;;;4.90;2.63;;;;;;;-139.48;100.00;61774.03;5095965;28;20089;-65
2021/08/20 00:07:40;;;;;;;6.65;2.55;;;;;;;-139.48;100.00;61774.03;5081410;28;20089;-67
2021/08/20 00:10:25;;;;;;;6.35;2.25;;;;;;;-139.48;100.00;61774.03;5095844;28;20122;-67
2021/08/20 00:13:09;;;;;;;7.57;2.38;;;;;;;-139.48;100.00;61774.03;5095788;28;20170;-67
2021/08/20 00:15:53;;;;;;;2.97;2.20;;;;;;;-139.48;100.00;61774.03;5095311;28;20047;-67
2021/08/20 00:18:37;;;;;;;4.53;3.00;;;;;;;-139.48;100.00;61774.03;5095613;28;20047;-67
2021/08/20 00:21:21;;;;;;;3.08;2.50;;;;;;;-139.48;100.00;61774.03;5096678;28;20466;-67
2021/08/20 00:24:05;;;;;;;6.35;2.67;;;;;;;-139.48;100.00;61774.03;5095588;28;20051;-67
2021/08/20 00:26:50;;;;;;;6.05;2.83;;;;;;;-139.48;100.00;61774.03;5116224;22;20051;-63
2021/08/20 00:29:34;;;;;;;3.83;2.60;;;;;;;-139.48;100.00;61774.03;5096209;28;20047;-64
2021/08/20 00:32:17;;;;;;;3.47;2.88;;;;;;;-139.48;100.00;61774.03;5096432;28;20455;-64
2021/08/20 00:35:02;;;;;;;3.47;2.80;;;;;;;-139.48;100.00;61774.03;5095195;28;20073;-64
2021/08/20 00:37:46;;;;;;;4.03;2.58;;;;;;;-139.48;100.00;61774.03;5094916;28;22005;-64
2021/08/20 00:40:30;;;;;;;2.50;2.30;;;;;;;-139.48;100.00;61774.03;5095273;28;20047;-64
2021/08/20 00:43:14;;;;;;;3.88;2.65;;;;;;;-139.48;100.00;61774.03;5095046;28;20046;-64
2021/08/20 00:46:00;;;;;;;3.88;2.50;;;;;;;-139.48;100.00;61774.03;5095130;28;20054;-63
2021/08/20 00:48:44;;;;;;;3.22;2.55;;;;;;;-139.48;100.00;61774.03;5094790;28;20562;-64
2021/08/20 00:51:31;;;;;;;3.70;2.60;;;;;;;-139.48;100.00;61774.03;5095985;28;20401;-64
2021/08/20 00:54:18;;;;;;;3.80;2.72;;;;;;;-139.48;100.00;61774.03;5094966;28;20055;-64
2021/08/20 00:57:02;;;;;;;2.63;2.42;;;;;;;-139.48;100.00;61774.03;5094817;28;20043;-64
2021/08/20 00:59:46;;;;;;;2.90;2.60;;;;;;;-139.48;100.00;61774.03;5094154;28;20048;-63
2021/08/20 01:02:30;;;;;;;5.55;2.22;;;;;;;-139.48;100.00;61774.03;5094791;28;20089;-64
2021/08/20 01:05:18;;;;;;;4.93;2.20;;;;;;;-139.48;100.00;61774.03;5094788;28;20109;-64
2021/08/20 01:08:05;;;;;;;3.58;2.75;;;;;;;-139.48;100.00;61774.03;5094581;28;20097;-64
2021/08/20 01:10:50;;;;;;;3.70;2.88;;;;;;;-139.48;100.00;61774.03;5094646;28;20055;-64
2021/08/20 01:13:37;;;;;;;3.22;2.30;;;;;;;-139.48;100.00;61774.03;5080313;28;20603;-64
2021/08/20 01:16:21;;;;;;;4.68;2.40;;;;;;;-139.48;100.00;61774.03;5080155;28;20097;-64
2021/08/20 01:19:05;;;;;;;5.30;2.55;;;;;;;-139.48;100.00;61774.03;5095158;28;20108;-63
2021/08/20 01:21:49;;;;;;;8.68;3.10;;;;;;;-139.48;100.00;61774.03;5095462;28;20054;-64
2021/08/20 01:24:34;;;;;;;5.03;2.63;;;;;;;-139.48;100.00;61774.03;5095353;28;20101;-64
2021/08/20 01:27:18;;;;;;;7.05;2.60;;;;;;;-139.48;100.00;61774.03;5093988;28;20126;-63
2021/08/20 01:30:04;;;;;;;4.13;2.60;;;;;;;-139.48;100.00;61774.03;5094992;28;20432;-64
2021/08/20 01:32:49;;;;;;;3.60;2.50;;;;;;;-139.48;100.00;61774.03;5079876;28;20047;-64
2021/08/20 01:35:33;;;;;;;3.05;2.30;;;;;;;-139.48;100.00;61774.03;5093922;28;20135;-63
2021/08/20 01:38:17;;;;;;;6.38;2.50;;;;;;;-139.48;100.00;61774.03;5093950;28;20109;-63
2021/08/20 01:41:01;;;;;;;3.80;2.15;;;;;;;-139.48;100.00;61774.03;5094063;28;20572;-64
2021/08/20 01:43:45;;;;;;;2.75;2.40;;;;;;;-139.48;100.00;61774.03;5093824;28;20507;-64
2021/08/20 01:46:30;;;;;;;5.53;2.75;;;;;;;-139.48;100.00;61774.03;5094852;28;20047;-63
2021/08/20 01:49:14;;;;;;;5.68;2.80;;;;;;;-139.48;100.00;61774.03;5094672;28;20054;-64
2021/08/20 01:51:58;;;;;;;2.85;2.63;;;;;;;-139.48;100.00;61774.03;5094862;28;20055;-64
2021/08/20 01:54:42;;;;;;;2.83;2.42;;;;;;;-139.48;100.00;61774.03;5093608;28;20420;-63
2021/08/20 01:57:26;;;;;;;4.50;2.60;;;;;;;-139.48;100.00;61774.03;5079164;28;20059;-64
2021/08/20 02:00:11;;;;;;;3.90;2.80;;;;;;;-139.48;100.00;61774.03;5093437;28;20111;-64
2021/08/20 02:02:55;;;;;;;3.97;2.88;;;;;;;-139.48;100.00;61774.03;5093693;28;20101;-64
2021/08/20 02:05:39;;;;;;;8.23;2.78;;;;;;;-139.48;100.00;61774.03;5093604;28;20066;-64
2021/08/20 02:08:23;;;;;;;5.30;2.55;;;;;;;-139.48;100.00;61774.03;5094263;28;20047;-63
2021/08/20 02:11:07;;;;;;;5.13;2.65;;;;;;;-139.48;100.00;61774.03;5078287;28;20051;-64
2021/08/20 02:13:51;;;;;;;3.53;2.40;;;;;;;-139.48;100.00;61774.03;5094759;28;20051;-64
2021/08/20 02:16:35;;;;;;;4.07;2.90;;;;;;;-139.48;100.00;61774.03;5078957;28;20048;-62
2021/08/20 02:19:19;;;;;;;;;;;;;;;-139.48;100.00;61774.03;5094464;28;20045;-64
2021/08/20 02:22:03;;;;;;;11.60;3.03;;;;;;;-139.48;100.00;61774.03;5093371;28;19918;-63
2021/08/20 02:24:49;;;;;;;4.63;2.38;;;;;;;-139.48;100.00;61774.03;5094243;28;20256;-64
2021/08/20 02:27:33;;;;;;;3.08;2.42;;;;;;;-139.48;100.00;61774.03;5093755;28;20046;-64
2021/08/20 02:30:17;;;;;;;3.15;2.75;;;;;;;-139.48;100.00;61774.03;5093209;28;20047;-64
2021/08/20 02:33:01;;;;;;;5.00;2.55;;;;;;;-139.48;100.00;61774.03;5078535;28;20047;-63
2021/08/20 02:35:45;;;;;;;5.82;2.95;;;;;;;-139.48;100.00;61774.03;5092959;28;20097;-63
2021/08/20 02:38:29;;;;;;;3.35;2.58;;;;;;;-139.48;100.00;61774.03;5078827;28;20117;-65
2021/08/20 02:41:13;;;;;;;6.03;2.80;;;;;;;-139.48;100.00;61774.03;5078472;28;20050;-65
2021/08/20 02:43:57;;;;;;;4.13;2.50;;;;;;;-139.48;100.00;61774.03;5078455;28;20042;-65
2021/08/20 02:46:41;;;;;;;4.78;2.72;;;;;;;-139.48;100.00;61774.03;5092822;28;20081;-65
2021/08/20 02:49:25;;;;;;;5.93;2.45;;;;;;;-139.48;100.00;61774.03;5093623;28;20542;-63
2021/08/20 02:52:09;;;;;;;3.47;2.33;;;;;;;-139.48;100.00;61774.03;5093553;28;20050;-65
2021/08/20 02:54:53;;;;;;;5.18;2.60;;;;;;;-139.48;100.00;61774.03;5092551;28;20066;-65
2021/08/20 02:57:37;;;;;;;3.25;2.47;;;;;;;-139.48;100.00;61774.03;5078339;28;20189;-65
2021/08/20 03:00:21;;;;;;;2.85;2.42;;;;;;;-139.48;100.00;61774.03;5092729;28;20105;-64
2021/08/20 03:03:05;;;;;;;7.35;2.92;;;;;;;-139.48;100.00;61774.03;5093524;28;20135;-64
2021/08/20 03:05:49;;;;;;;4.43;2.78;;;;;;;-139.48;100.00;61774.03;5078361;28;20101;-63
2021/08/20 03:08:33;;;;;;;;;;;;;;;-139.48;100.00;61774.03;5092996;28;20588;-65
2021/08/20 03:11:17;;;;;;;3.20;2.80;;;;;;;-139.48;100.00;61774.03;5093291;28;20422;-64
2021/08/20 03:14:01;;;;;;;5.47;2.50;;;;;;;-139.48;100.00;61774.03;5092301;28;20051;-64
2021/08/20 03:16:45;;;;;;;4.35;2.50;;;;;;;-139.48;100.00;61774.03;5092455;28;20085;-64
2021/08/20 03:19:29;;;;;;;4.10;2.60;;;;;;;-139.48;100.00;61774.03;5093131;28;20047;-63
2021/08/20 03:22:13;;;;;;;4.22;2.78;;;;;;;-139.48;100.00;61774.03;5096967;28;20046;-64
2021/08/20 03:24:57;;;;;;;4.68;2.63;;;;;;;-139.48;100.00;61774.03;5098910;28;20073;-64
2021/08/20 03:27:41;;;;;;;3.05;2.28;;;;;;;-139.48;100.00;61774.03;5084557;28;20055;-64
2021/08/20 03:30:26;;;;;;;7.10;2.97;;;;;;;-139.48;100.00;61774.03;5099798;28;20075;-65
2021/08/20 03:33:10;;;;;;;;;;;;;;;-139.48;100.00;61774.03;5099281;28;20055;-64
2021/08/20 03:35:54;;;;;;;5.17;3.00;;;;;;;-139.48;100.00;61774.03;5084752;28;20383;-64
2021/08/20 03:38:37;;;;;;;8.85;3.30;;;;;;;-139.48;100.00;61774.03;5099719;28;20558;-64
2021/08/20 03:41:22;;;;;;;4.57;3.00;;;;;;;-139.48;100.00;61774.03;5100068;28;20508;-64
2021/08/20 03:44:06;;;;;;;6.15;2.83;;;;;;;-139.48;100.00;61774.03;5084363;28;20046;-64
2021/08/20 03:46:50;;;;;;;5.90;2.95;;;;;;;-139.48;100.00;61774.03;5098707;28;20074;-64
2021/08/20 03:49:33;;;;;;;4.43;2.70;;;;;;;-139.48;100.00;61774.03;5084675;28;20454;-64
2021/08/20 03:52:17;;;;;;;4.90;3.03;;;;;;;-139.48;100.00;61774.03;5084620;28;20051;-64
2021/08/20 03:55:02;;;;;;;6.60;3.00;;;;;;;-139.48;100.00;61774.03;5099835;28;20174;-64
2021/08/20 03:57:49;;;;;;;4.68;2.80;;;;;;;-139.48;100.00;61774.03;5098748;28;20047;-64
2021/08/20 04:00:35;;;;;;;5.53;2.83;;;;;;;-139.48;100.00;61774.03;5098858;28;20051;-64
2021/08/20 04:03:20;;;;;;;4.32;3.55;;;;;;;-139.48;100.00;61774.03;5099531;28;20097;-64
2021/08/20 04:06:08;;;;;;;8.00;3.17;;;;;;;-139.48;100.00;61774.03;5098699;28;20105;-64
2021/08/20 04:08:52;;;;;;;5.28;3.22;;;;;;;-139.48;100.00;61774.03;5098744;28;20401;-64
2021/08/20 04:11:36;;;;;;;5.70;3.40;;;;;;;-139.48;100.00;61774.03;5098430;28;20431;-64
2021/08/20 04:14:20;;;;;;;4.20;3.28;;;;;;;-139.48;100.00;61774.03;5099513;28;20043;-64
2021/08/20 04:17:04;;;;;;;8.40;3.80;;;;;;;-139.48;100.00;61774.03;5099357;28;20444;-64
2021/08/20 04:19:47;;;;;;;6.15;3.92;;;;;;;-139.48;100.00;61774.03;5084278;28;20051;-64
2021/08/20 04:22:31;;;;;;;10.77;4.45;;;;;;;-139.48;100.00;61774.03;5098328;28;20097;-63
2021/08/20 04:25:16;;;;;;;9.02;3.90;;;;;;;-139.48;100.00;61774.03;5098628;28;20420;-64
2021/08/20 04:28:00;;;;;;;5.22;3.97;;;;;;;-139.48;100.00;61774.03;5099145;28;20078;-64
2021/08/20 04:30:44;;;;;;;7.25;4.00;;;;;;;-139.48;100.00;61774.03;5098555;28;20055;-64
2021/08/20 04:33:28;;;;;;;4.90;3.88;;;;;;;-139.48;100.00;61774.03;5095409;28;20126;-64
2021/08/20 04:36:12;;;;;;;5.47;3.90;;;;;;;-139.48;100.00;61774.03;5096255;28;20039;-65
2021/08/20 04:38:56;;;;;;;5.07;4.28;;;;;;;-139.48;100.00;61774.03;5095187;28;20545;-64
2021/08/20 04:41:41;;;;;;;6.25;3.83;;;;;;;-139.48;100.00;61774.03;5095211;28;20097;-64
2021/08/20 04:44:24;;;;;;;9.35;4.70;;;;;;;-139.48;100.00;61774.03;5095142;28;20451;-64
2021/08/20 04:47:09;;;;;;;10.00;4.60;;;;;;;-139.48;100.00;61774.03;5095033;28;20417;-63
2021/08/20 04:49:53;;;;;;;5.63;4.00;;;;;;;-139.48;100.00;61774.03;5095990;28;20154;-64
2021/08/20 04:52:37;;;;;;;6.88;4.22;;;;;;;-139.48;100.00;61774.03;5095692;28;20416;-64
2021/08/20 04:55:22;;;;;;;5.78;4.35;;;;;;;-139.48;100.00;61774.03;5094933;28;20055;-64
2021/08/20 04:58:05;;;;;;;8.75;4.38;;;;;;;-139.48;100.00;61774.03;5094539;28;20063;-64
2021/08/20 05:00:49;;;;;;;5.28;4.13;;;;;;;-139.48;100.00;61774.03;5095545;28;20101;-64
2021/08/20 05:03:34;;;;;;;5.88;4.63;;;;;;;-139.48;100.00;61774.03;5094660;28;20050;-64
2021/08/20 05:06:18;;;;;;;8.35;4.25;;;;;;;-139.48;100.00;61774.03;5095603;28;20047;-63
2021/08/20 05:09:03;;;;;;;7.15;4.22;;;;;;;-139.48;100.00;61774.03;5080413;28;20062;-64
2021/08/20 05:11:46;;;;;;;6.35;4.00;;;;;;;-139.48;100.00;61774.03;5094368;28;20082;-64
2021/08/20 05:14:30;;;;;;;8.02;3.83;;;;;;;-139.48;100.00;61774.03;5094576;28;20078;-64
2021/08/20 05:17:14;;;;;;;8.07;3.72;;;;;;;-139.48;100.00;61774.03;5080051;28;20536;-64
2021/08/20 05:19:59;;;;;;;5.40;3.90;;;;;;;-139.48;100.00;61774.03;5094084;28;20051;-65
2021/08/20 05:22:48;;;;;;;8.80;4.47;;;;;;;-139.48;100.00;61774.03;5094526;28;20097;-65
2021/08/20 05:25:33;;;;;;;5.32;3.97;;;;;;;-139.48;100.00;61774.03;5095337;28;20184;-65
2021/08/20 05:28:17;;;;;;;7.10;4.50;;;;;;;-139.48;100.00;61774.03;5079588;28;20051;-65
2021/08/20 05:31:01;;;;;;;7.30;4.70;;;;;;;-139.48;100.00;61774.03;5093961;28;20092;-64
2021/08/20 05:33:45;;;;;;;9.48;4.50;;;;;;;-139.48;100.00;61774.03;5094209;28;20140;-64
2021/08/20 05:36:29;;;;;;;6.75;4.50;;;;;;;-139.48;100.00;61774.03;5094064;28;20046;-64
2021/08/20 05:39:13;;;;;;;5.68;4.80;;;;;;;-139.48;100.00;61774.03;5094081;28;20094;-64
2021/08/20 05:41:57;;;;;;;6.93;4.53;;;;;;;-139.48;100.00;61774.03;5094086;28;20108;-65
2021/08/20 05:44:41;;;;;;;29.15;4.85;;;;;;;-139.48;100.00;61774.03;5095024;28;20051;-65
2021/08/20 05:47:25;;;;;;;6.45;4.15;;;;;;;-139.48;100.00;61774.03;5095052;28;20051;-65
2021/08/20 05:50:09;;;;;;;4.95;4.22;;;;;;;-139.48;100.00;61774.03;5093572;28;20093;-64
2021/08/20 05:52:52;;;;;;;;;;;;;;;-139.48;100.00;61774.03;5079983;28;20089;-64
2021/08/20 05:55:36;;;;;;;5.32;4.07;;;;;;;-139.48;100.00;61774.03;5094731;28;19919;-65
2021/08/20 05:58:20;;;;;;;12.55;3.88;;;;;;;-139.48;100.00;61774.03;5093453;28;20055;-65
2021/08/20 06:01:04;;;;;;;6.57;4.68;;;;;;;-139.48;100.00;61774.03;5079432;28;20077;-67
2021/08/20 06:03:48;;;;;;;7.05;3.83;;;;;;;-139.48;100.00;61774.03;5093645;28;20408;-67
2021/08/20 06:06:32;;;;;;;4.68;3.67;;;;;;;-139.48;100.00;61774.03;5093454;28;20488;-67
2021/08/20 06:09:16;;;;;;;5.70;3.80;;;;;;;-139.48;100.00;61774.03;5093620;28;20050;-67
2021/08/20 06:12:00;;;;;;;7.88;3.78;;;;;;;-139.48;100.00;61774.03;5093547;28;20113;-67
2021/08/20 06:14:44;;;;;;;7.32;4.35;;;;;;;-139.48;100.00;61774.03;5093660;28;20185;-67
2021/08/20 06:17:27;;;;;;;7.85;3.97;;;;;;;-139.48;100.00;61774.03;5093226;28;20055;-67
2021/08/20 06:20:12;;;;;;;;;;;;;;;-139.48;100.00;61774.03;5093569;28;20101;-67
2021/08/20 06:22:56;;;;;;;7.07;3.73;;;;;;;-139.48;100.00;61774.03;5093128;28;20437;-67
2021/08/20 06:25:40;;;;;;;7.35;4.25;;;;;;;-139.48;100.00;61774.03;5079192;28;20089;-67
2021/08/20 06:28:24;;;;;;;5.80;3.95;;;;;;;-139.48;100.00;61774.03;5095437;28;20139;-67
2021/08/20 06:31:08;;;;;;;6.55;4.38;;;;;;;-139.48;100.00;61774.03;5093942;28;20094;-68
2021/08/20 06:33:53;;;;;;;6.63;4.53;;;;;;;-139.48;100.00;61774.03;5093167;28;20546;-67
2021/08/20 06:36:37;;;;;;;6.32;4.40;;;;;;;-139.48;100.00;61774.03;5092746;28;20046;-68
2021/08/20 06:39:21;;;;;;;6.70;4.32;;;;;;;-139.48;100.00;61774.03;5092719;28;20047;-67
2021/08/20 06:42:05;;;;;;;;;;;;;;;-139.48;100.00;61774.03;5093139;28;20478;-67
2021/08/20 06:44:49;;;;;;;8.90;4.60;;;;;;;-139.48;100.00;61774.03;5093744;28;19918;-67
2021/08/20 06:47:33;;;;;;;5.75;4.22;;;;;;;-139.48;100.00;61774.03;5078858;28;20263;-68
2021/08/20 06:50:17;;;;;;;7.55;4.90;;;;;;;-139.48;100.00;61774.03;5092721;28;20047;-68
2021/08/20 06:53:01;;;;;;;7.85;4.55;;;;;;;-139.48;100.00;61774.03;5093838;28;20074;-67
2021/08/20 06:55:45;;;;;;;5.30;4.18;;;;;;;-139.48;100.00;61774.03;5077781;28;20504;-68
2021/08/20 06:58:29;;;;;;;5.47;4.25;;;;;;;-139.48;100.00;61774.03;5092638;28;20068;-68
2021/08/20 07:01:14;;;;;;;6.35;4.30;;;;;;;-139.48;100.00;61774.03;5094002;28;20098;-68
2021/08/20 07:03:59;;;;;;;8.05;4.15;;;;;;;-139.48;100.00;61774.03;5092365;28;20050;-68
2021/08/20 07:06:43;;;;;;;7.28;4.45;;;;;;;-139.48;100.00;61774.03;5092468;28;20098;-68
2021/08/20 07:09:27;;;;;;;6.75;5.15;;;;;;;-139.48;100.00;61774.03;5093608;28;20058;-68
2021/08/20 07:12:11;;;;;;;6.60;4.60;;;;;;;-139.48;100.00;61774.03;5092570;28;20091;-68
2021/08/20 07:14:55;;;;;;;;;;;;;;;-139.48;100.00;61774.03;5092697;28;20459;-68
2021/08/20 07:17:39;;;;;;;5.13;4.53;;;;;;;-139.48;100.00;61774.03;5093532;28;19966;-68
2021/08/20 07:20:23;;;;;;;8.57;5.65;;;;;;;-139.48;100.00;61774.03;5093730;28;20109;-68
2021/08/20 07:23:07;;;;;;;8.73;5.70;;;;;;;-139.48;100.00;61774.03;5092451;28;20097;-68
2021/08/20 07:25:51;;;;;;;;;;;;;;;-139.48;100.00;61774.03;5093592;28;20172;-68
2021/08/20 07:28:35;;;;;;;7.27;5.77;;;;;;;-139.48;100.00;61774.03;5092451;28;19938;-68
2021/08/20 07:31:20;;;;;;;8.98;5.57;;;;;;;-139.48;100.00;61774.03;5078119;28;20357;-66
2021/08/20 07:34:04;;;;;;;6.80;5.78;;;;;;;-139.48;100.00;61774.03;5092031;28;20046;-68
2021/08/20 07:36:48;;;;;;;11.18;6.00;;;;;;;-139.48;100.00;61774.03;5093170;28;20587;-68
2021/08/20 07:39:32;;;;;;;;;;;;;;;-139.48;100.00;61774.03;5093685;28;20114;-68
2021/08/20 07:42:19;;;;;;;6.80;4.85;;;;;;;-139.48;100.00;61774.03;5092036;28;19923;-69
2021/08/20 07:45:03;;;;;;;7.55;5.47;;;;;;;-139.48;100.00;61774.03;5092086;28;20093;-68
2021/08/20 07:47:50;;;;;;;9.50;5.70;;;;;;;-139.48;100.00;61774.03;5092789;28;20047;-68
2021/08/20 07:50:34;;;;;;;9.85;5.60;;;;;;;-139.48;100.00;61774.03;5091927;28;20093;-68
2021/08/20 07:53:18;;;;;;;9.00;5.07;;;;;;;-139.48;100.00;61774.03;5091881;28;20047;-68
2021/08/20 07:56:02;;;;;;;;;;;;;;;-139.48;100.00;61774.03;5093050;28;20043;-68
2021/08/20 07:58:47;;;;;;;14.50;6.53;;;;;;;-139.48;100.00;61774.03;5091883;28;19964;-69
2021/08/20 08:01:31;;;;;;;7.20;5.68;;;;;;;-139.48;100.00;61774.03;5091812;28;20082;-68
2021/08/20 08:04:14;;;;;;;8.07;4.80;;;;;;;-139.48;100.00;61774.03;5092172;28;20063;-68
2021/08/20 08:06:58;;;;;;;6.63;3.78;;;;;;;-139.48;100.00;61774.03;5093055;28;20051;-68
2021/08/20 08:09:42;;;;;;;;;;;;;;;-139.48;100.00;61774.03;5081017;28;20415;-68
2021/08/20 08:12:26;;;;;;;5.40;3.67;;;;;;;-139.48;100.00;61774.03;5081585;28;19961;-68
2021/08/20 08:15:11;;;;;;;4.82;3.80;;;;;;;-139.48;100.00;61774.03;5096881;28;20402;-68
2021/08/20 08:17:58;;;;;;;4.15;3.50;;;;;;;-139.48;100.00;61774.03;5096406;28;20047;-68
2021/08/20 08:20:42;;;;;;;5.00;3.65;;;;;;;-139.48;100.00;61774.03;5081453;28;20109;-68
2021/08/20 08:23:26;;;;;;;7.60;3.15;;;;;;;-139.48;100.00;61774.03;5095609;28;20054;-68
2021/08/20 08:26:10;;;;;;;4.00;3.58;;;;;;;-139.48;100.00;61774.03;5080877;28;20118;-69
2021/08/20 08:28:54;;;;;;;5.28;3.30;;;;;;;-139.48;100.00;61774.03;5096572;28;20071;-69
2021/08/20 08:31:38;;;;;;;3.50;3.10;;;;;;;-139.48;100.00;61774.03;5095542;28;20504;-69
2021/08/20 08:34:22;;;;;;;;;;;;;;;-139.48;100.00;61774.03;5095603;28;20071;-69
2021/08/20 08:37:06;;;;;;;5.27;3.33;;;;;;;-139.48;100.00;61774.03;5096257;28;20399;-69
2021/08/20 08:39:50;;;;;;;4.32;3.30;;;;;;;-139.48;100.00;61774.03;5080985;28;20283;-69
2021/08/20 08:42:35;;;;;;;5.72;3.55;;;;;;;-139.48;100.00;61774.03;5096096;28;20047;-68
2021/08/20 08:45:19;;;;;;;4.00;3.55;;;;;;;-139.48;100.00;61774.03;5080852;28;20123;-68
2021/08/20 08:48:07;;;;;;;7.38;3.47;;;;;;;-139.48;100.00;61774.03;5094970;28;20093;-69
2021/08/20 08:50:53;;;;;;;5.45;3.63;;;;;;;-139.48;100.00;61774.03;5081063;28;20043;-68
2021/08/20 08:53:37;;;;;;;3.83;3.45;;;;;;;-139.48;100.00;61774.03;5095083;28;20047;-69
2021/08/20 08:56:21;;;;;;;6.97;3.70;;;;;;;-139.48;100.00;61774.03;5094930;28;20545;-69
2021/08/20 08:59:05;;;;;;;;;;;;;;;-139.48;100.00;61774.03;5096250;28;20524;-69
2021/08/20 09:01:50;;;;;;;4.88;3.55;;;;;;;-139.48;100.00;61774.03;5094660;28;20434;-69
2021/08/20 09:04:35;;;;;;;7.78;3.47;;;;;;;-139.48;100.00;61774.03;5096120;28;20085;-69
2021/08/20 09:07:19;;;;;;;6.00;3.60;;;;;;;-139.48;100.00;61774.03;5094563;28;20046;-68
2021/08/20 09:10:11;;;;;;;4.85;3.00;;;;;;;-139.48;100.00;61774.03;5095796;28;20405;-69
2021/08/20 09:12:56;;;;;;;5.57;3.38;;;;;;;-139.48;100.00;61774.03;5094402;28;20050;-69
2021/08/20 09:15:40;;;;;;;4.38;3.10;;;;;;;-139.48;100.00;61774.03;5095650;28;20157;-69
2021/08/20 09:18:24;;;;;;;4.13;3.72;;;;;;;-139.48;100.00;61774.03;5094102;28;20093;-68
2021/08/20 09:21:15;;;;;;;4.18;3.58;;;;;;;-139.48;100.00;61774.03;5094438;28;20055;-68
2021/08/20 09:23:59;;;;;;;7.20;3.15;;;;;;;-139.48;100.00;61774.03;5095460;28;20503;-69
2021/08/20 09:26:43;;;;;;;5.57;4.00;;;;;;;-139.48;100.00;61774.03;5095131;28;20135;-68
2021/08/20 09:29:27;;;;;;;6.35;3.95;;;;;;;-139.48;100.00;61774.03;5080031;28;20120;-69
2021/08/20 09:32:11;;;;;;;;;;;;;;;-139.48;100.00;61774.03;5095498;28;20565;-69
2021/08/20 09:34:57;;;;;;;4.78;3.50;;;;;;;-139.48;100.00;61774.03;5079766;28;20046;-69
2021/08/20 09:37:41;;;;;;;4.07;3.17;;;;;;;-139.48;100.00;61774.03;5094031;28;20420;-69
2021/08/20 09:40:25;;;;;;;;;;;;;;;-139.48;100.00;61774.03;5080349;28;20039;-69
2021/08/20 09:43:18;;;;;;;4.63;3.13;;;;;;;-139.48;100.00;61774.03;5095079;28;19918;-68
2021/08/20 09:46:10;;;;;;;4.07;3.35;;;;;;;-139.48;100.00;61774.03;5095077;28;20097;-68
2021/08/20 09:49:02;;;;;;;6.20;3.80;;;;;;;-139.48;100.00;61774.03;5094117;28;20043;-69
2021/08/20 09:51:50;;;;;;;3.88;3.38;;;;;;;-139.48;100.00;61774.03;5093991;28;20050;-69
2021/08/20 09:54:42;;;;;;;5.10;3.58;;;;;;;-139.48;100.00;61774.03;5079373;28;20101;-69
2021/08/20 09:57:27;;;;;;;7.32;3.70;;;;;;;-139.48;100.00;61774.03;5093723;28;20101;-68
2021/08/20 10:00:11;;;;;;;5.35;3.83;;;;;;;-139.48;100.00;61774.03;5093413;28;20101;-68
2021/08/20 10:02:55;;;;;;;4.78;3.70;;;;;;;-139.48;100.00;61774.03;5093767;28;20047;-69
2021/08/20 10:05:39;;;;;;;4.18;3.42;;;;;;;-139.48;100.00;61774.03;5093958;28;20089;-69
2021/08/20 10:08:24;;;;;;;3.75;3.13;;;;;;;-139.48;100.00;61774.03;5093290;28;20125;-69
2021/08/20 10:11:08;;;;;;;3.60;3.20;;;;;;;-139.48;100.00;61774.03;5093650;28;20047;-69
2021/08/20 10:13:53;;;;;;;5.07;2.97;;;;;;;-139.48;100.00;61774.03;5093436;28;20046;-69
2021/08/20 10:16:38;;;;;;;4.20;3.20;;;;;;;-139.48;100.00;61774.03;5079016;28;20051;-70
2021/08/20 10:19:22;;;;;;;4.15;3.10;;;;;;;-139.48;100.00;61774.03;5093347;28;20089;-68
2021/08/20 10:22:06;;;;;;;5.88;3.08;;;;;;;-139.48;100.00;61774.03;5093365;28;20468;-69
2021/08/20 10:24:50;;;;;;;4.47;3.00;;;;;;;-139.48;100.00;61774.03;5093195;28;20055;-69
2021/08/20 10:27:36;;;;;;;3.17;2.88;;;;;;;-139.48;100.00;61774.03;5092751;28;20173;-67
2021/08/20 10:30:20;;;;;;;3.50;3.20;;;;;;;-139.48;100.00;61774.03;5092670;28;20644;-67
2021/08/20 10:33:06;;;;;;;5.78;2.97;;;;;;;-139.48;100.00;61774.03;5078364;28;20109;-66
2021/08/20 10:35:55;;;;;;;5.20;3.63;;;;;;;-139.48;100.00;61774.03;5093099;28;20117;-66
2021/08/20 10:38:38;;;;;;;3.33;2.97;;;;;;;-139.48;100.00;61774.03;5092630;28;20051;-69
2021/08/20 10:41:22;;;;;;;4.93;3.17;;;;;;;-139.48;100.00;61774.03;5093797;28;20129;-68
2021/08/20 10:44:09;;;;;;;3.58;2.90;;;;;;;-139.48;100.00;61774.03;5094016;28;20472;-67
2021/08/20 10:46:53;;;;;;;4.10;2.75;;;;;;;-139.48;100.00;61774.03;5093650;28;20069;-67
2021/08/20 10:49:39;;;;;;;3.72;3.42;;;;;;;-139.48;100.00;61774.03;5093920;28;20465;-69
2021/08/20 10:52:28;;;;;;;6.10;3.00;;;;;;;-139.48;100.00;61774.03;5092822;28;20500;-67
2021/08/20 10:55:14;;;;;;;3.47;2.92;;;;;;;-139.48;100.00;61774.03;5092811;28;20046;-67
2021/08/20 10:58:01;;;;;;;6.40;3.47;;;;;;;-139.48;100.00;61774.03;5093466;28;20148;-68
2021/08/20 11:00:53;;;;;;;3.22;2.92;;;;;;;-139.48;100.00;61774.03;5092753;28;20050;-68
2021/08/20 11:03:41;;;;;;;3.47;2.80;;;;;;;-139.48;100.00;61774.03;5092691;28;20047;-67
2021/08/20 11:06:48;;;;;;;4.85;3.20;;;;;;;-139.48;100.00;61774.03;5092066;28;20112;-69
2021/08/20 11:09:33;;;;;;;4.00;3.05;;;;;;;-139.48;100.00;61774.03;5092717;28;20077;-68
2021/08/20 11:12:37;;;;;;;6.35;3.13;;;;;;;-139.48;100.00;61774.03;5092852;28;20055;-68
2021/08/20 11:15:27;;;;;;;4.28;3.20;;;;;;;-139.48;100.00;61774.03;5093607;28;20051;-68
2021/08/20 11:18:11;;;;;;;3.30;2.92;;;;;;;-139.48;100.00;61774.03;5093182;28;20550;-68
2021/08/20 11:20:55;;;;;;;3.17;2.90;;;;;;;-139.48;100.00;61774.03;5078288;28;20093;-69
2021/08/20 11:23:39;;;;;;;4.93;3.20;;;;;;;-139.48;100.00;61774.03;5093271;28;20054;-68
2021/08/20 11:26:30;;;;;;;4.70;3.42;;;;;;;-139.48;100.00;61774.03;5093344;28;20093;-68
2021/08/20 11:29:15;;;;;;;4.22;3.53;;;;;;;-139.48;100.00;61774.03;5092532;28;20074;-67
2021/08/20 11:32:05;;;;;;;5.07;2.92;;;;;;;-139.48;100.00;61774.03;5092138;28;20066;-67
2021/08/20 11:34:51;;;;;;;6.30;3.45;;;;;;;-139.48;100.00;61774.03;5093559;28;20083;-67
2021/08/20 11:37:35;;;;;;;3.22;2.92;;;;;;;-139.48;100.00;61774.03;5092279;28;20539;-67
2021/08/20 11:40:19;;;;;;;3.70;3.10;;;;;;;-139.48;100.00;61774.03;5077767;28;20134;-67
2021/08/20 11:43:10;;;;;;;7.03;3.05;;;;;;;-139.48;100.00;61774.03;5094722;28;20169;-68
2021/08/20 11:46:03;;;;;;;3.30;3.00;;;;;;;-139.48;100.00;61774.03;5097178;28;20408;-67
2021/08/20 11:48:58;;;;;;;53.95;6.57;;;;;;;-139.48;100.00;61774.03;5097659;28;20062;-67
2021/08/20 11:51:42;;;;;;;4.68;2.97;;;;;;;-139.48;100.00;61774.03;5096257;28;20074;-68
2021/08/20 11:54:33;;;;;;;3.72;3.40;;;;;;;-139.48;100.00;61774.03;5081499;28;20164;-67
2021/08/20 11:57:17;;;;;;;3.63;3.33;;;;;;;-139.48;100.00;61774.03;5096075;28;20051;-68
2021/08/20 12:00:01;;;;;;;3.58;3.28;;;;;;;-139.48;100.00;61774.03;5096808;28;20114;-68
2021/08/20 12:02:45;;;;;;;4.60;3.28;;;;;;;-139.48;100.00;61774.03;5096883;28;20047;-68
2021/08/20 12:05:29;;;;;;;4.95;3.35;;;;;;;-139.48;100.00;61774.03;5096925;28;20190;-68
2021/08/20 12:08:17;;;;;;;3.75;3.13;;;;;;;-139.48;100.00;61774.03;5081240;28;20101;-68
2021/08/20 12:11:02;;;;;;;3.15;2.95;;;;;;;-139.48;100.00;61774.03;5095936;28;20050;-68
2021/08/20 12:13:52;;;;;;;5.18;3.97;;;;;;;-139.48;100.00;61774.03;5096908;28;20088;-67
2021/08/20 12:16:41;;;;;;;4.68;3.17;;;;;;;-139.48;100.00;61774.03;5081438;28;20042;-69
2021/08/20 12:19:26;;;;;;;3.35;3.00;;;;;;;-139.48;100.00;61774.03;5096085;28;20047;-68
2021/08/20 12:22:13;;;;;;;3.45;3.20;;;;;;;-139.48;100.00;61774.03;5096648;28;20054;-69
2021/08/20 12:24:57;;;;;;;3.45;3.15;;;;;;;-139.48;100.00;61774.03;5095621;28;20173;-69
2021/08/20 12:27:42;;;;;;;4.45;3.08;;;;;;;-139.48;100.00;61774.03;5097790;28;20075;-69
2021/08/20 12:30:28;;;;;;;3.40;3.10;;;;;;;-139.48;100.00;61774.03;5096786;28;20555;-67
2021/08/20 12:33:12;;;;;;;3.50;3.20;;;;;;;-139.48;100.00;61774.03;5095557;28;20042;-66